sensor_id;sensor_type;location;lat;lon;timestamp;P1;durP1;ratioP1;P2;durP2;ratioP2
9783;SDS011;4931;44.874;-1.092;2024-01-07T00:01:25;10.70;;;2.90;;
9783;SDS011;4931;44.874;-1.092;2024-01-07T00:03:51;10.45;;;3.03;;
9783;SDS011;4931;44.874;-1.092;2024-01-07T00:06:17;11.35;;;3.30;;
9783;SDS011;4931;44.874;-1.092;2024-01-07T00:08:42;14.60;;;4.40;;
9783;SDS011;4931;44.874;-1.092;2024-01-07T00:11:08;10.02;;;3.55;;
9783;SDS011;4931;44.874;-1.092;2024-01-07T00:13:33;14.68;;;4.28;;
9783;SDS011;4931;44.874;-1.092;2024-01-07T00:15:59;11.20;;;3.63;;
9783;SDS011;4931;44.874;-1.092;2024-01-07T00:18:25;10.85;;;3.20;;
9783;SDS011;4931;44.874;-1.092;2024-01-07T00:20:52;9.20;;;2.35;;
9783;SDS011;4931;44.874;-1.092;2024-01-07T00:23:18;9.60;;;2.58;;
9783;SDS011;4931;44.874;-1.092;2024-01-07T00:25:43;7.63;;;2.38;;
9783;SDS011;4931;44.874;-1.092;2024-01-07T00:28:09;8.68;;;2.00;;
9783;SDS011;4931;44.874;-1.092;2024-01-07T00:30:35;11.90;;;2.42;;
9783;SDS011;4931;44.874;-1.092;2024-01-07T00:33:00;8.10;;;2.30;;
9783;SDS011;4931;44.874;-1.092;2024-01-07T00:35:25;5.28;;;2.10;;
9783;SDS011;4931;44.874;-1.092;2024-01-07T00:37:51;13.68;;;2.38;;
9783;SDS011;4931;44.874;-1.092;2024-01-07T00:40:16;7.88;;;1.75;;
9783;SDS011;4931;44.874;-1.092;2024-01-07T00:42:42;6.13;;;1.75;;
9783;SDS011;4931;44.874;-1.092;2024-01-07T00:45:07;7.75;;;2.00;;
9783;SDS011;4931;44.874;-1.092;2024-01-07T00:47:34;5.43;;;2.10;;
9783;SDS011;4931;44.874;-1.092;2024-01-07T00:49:59;9.45;;;2.00;;
9783;SDS011;4931;44.874;-1.092;2024-01-07T00:52:25;6.55;;;1.83;;
9783;SDS011;4931;44.874;-1.092;2024-01-07T00:54:50;9.82;;;2.20;;
9783;SDS011;4931;44.874;-1.092;2024-01-07T00:57:16;6.88;;;1.80;;
9783;SDS011;4931;44.874;-1.092;2024-01-07T00:59:41;5.53;;;2.15;;
9783;SDS011;4931;44.874;-1.092;2024-01-07T01:02:07;6.38;;;2.00;;
9783;SDS011;4931;44.874;-1.092;2024-01-07T01:04:32;6.10;;;1.98;;
9783;SDS011;4931;44.874;-1.092;2024-01-07T01:06:57;7.72;;;2.47;;
9783;SDS011;4931;44.874;-1.092;2024-01-07T01:09:23;6.10;;;2.00;;
9783;SDS011;4931;44.874;-1.092;2024-01-07T01:11:48;6.65;;;2.40;;
9783;SDS011;4931;44.874;-1.092;2024-01-07T01:14:15;8.23;;;2.30;;
9783;SDS011;4931;44.874;-1.092;2024-01-07T01:16:41;7.75;;;2.30;;
9783;SDS011;4931;44.874;-1.092;2024-01-07T01:19:06;7.00;;;2.30;;
9783;SDS011;4931;44.874;-1.092;2024-01-07T01:21:32;5.35;;;2.60;;
9783;SDS011;4931;44.874;-1.092;2024-01-07T01:23:57;6.97;;;2.40;;
9783;SDS011;4931;44.874;-1.092;2024-01-07T01:26:23;7.72;;;2.40;;
9783;SDS011;4931;44.874;-1.092;2024-01-07T01:28:49;8.73;;;2.72;;
9783;SDS011;4931;44.874;-1.092;2024-01-07T01:31:14;9.50;;;2.80;;
9783;SDS011;4931;44.874;-1.092;2024-01-07T01:33:40;9.32;;;2.65;;
9783;SDS011;4931;44.874;-1.092;2024-01-07T01:36:06;8.30;;;3.13;;
9783;SDS011;4931;44.874;-1.092;2024-01-07T01:38:32;6.75;;;2.90;;
9783;SDS011;4931;44.874;-1.092;2024-01-07T01:40:57;5.90;;;2.70;;
9783;SDS011;4931;44.874;-1.092;2024-01-07T01:43:23;6.43;;;3.08;;
9783;SDS011;4931;44.874;-1.092;2024-01-07T01:45:50;6.40;;;2.67;;
9783;SDS011;4931;44.874;-1.092;2024-01-07T01:48:16;4.35;;;2.53;;
9783;SDS011;4931;44.874;-1.092;2024-01-07T01:50:41;5.80;;;2.50;;
9783;SDS011;4931;44.874;-1.092;2024-01-07T01:53:07;9.35;;;2.70;;
9783;SDS011;4931;44.874;-1.092;2024-01-07T01:55:32;7.40;;;2.72;;
9783;SDS011;4931;44.874;-1.092;2024-01-07T01:57:59;8.70;;;2.60;;
9783;SDS011;4931;44.874;-1.092;2024-01-07T02:00:29;9.30;;;2.60;;
9783;SDS011;4931;44.874;-1.092;2024-01-07T02:02:55;7.50;;;2.42;;
9783;SDS011;4931;44.874;-1.092;2024-01-07T02:05:21;6.25;;;2.78;;
9783;SDS011;4931;44.874;-1.092;2024-01-07T02:07:47;7.28;;;2.63;;
9783;SDS011;4931;44.874;-1.092;2024-01-07T02:10:13;7.50;;;2.53;;
9783;SDS011;4931;44.874;-1.092;2024-01-07T02:12:39;7.90;;;2.60;;
9783;SDS011;4931;44.874;-1.092;2024-01-07T02:15:04;7.38;;;2.67;;
9783;SDS011;4931;44.874;-1.092;2024-01-07T02:17:30;6.68;;;2.33;;
9783;SDS011;4931;44.874;-1.092;2024-01-07T02:19:56;10.10;;;3.22;;
9783;SDS011;4931;44.874;-1.092;2024-01-07T02:22:22;7.28;;;2.53;;
9783;SDS011;4931;44.874;-1.092;2024-01-07T02:24:47;6.93;;;2.88;;
9783;SDS011;4931;44.874;-1.092;2024-01-07T02:27:13;7.82;;;2.80;;
9783;SDS011;4931;44.874;-1.092;2024-01-07T02:29:38;8.23;;;2.75;;
9783;SDS011;4931;44.874;-1.092;2024-01-07T02:32:04;7.18;;;2.47;;
9783;SDS011;4931;44.874;-1.092;2024-01-07T02:34:30;6.80;;;2.55;;
9783;SDS011;4931;44.874;-1.092;2024-01-07T02:36:55;5.88;;;2.50;;
9783;SDS011;4931;44.874;-1.092;2024-01-07T02:39:21;4.65;;;2.17;;
9783;SDS011;4931;44.874;-1.092;2024-01-07T02:41:46;5.63;;;2.20;;
9783;SDS011;4931;44.874;-1.092;2024-01-07T02:44:12;8.65;;;2.50;;
9783;SDS011;4931;44.874;-1.092;2024-01-07T02:46:38;7.72;;;2.72;;
9783;SDS011;4931;44.874;-1.092;2024-01-07T02:49:03;5.55;;;2.33;;
9783;SDS011;4931;44.874;-1.092;2024-01-07T02:51:29;5.57;;;1.88;;
9783;SDS011;4931;44.874;-1.092;2024-01-07T02:53:54;8.38;;;2.35;;
9783;SDS011;4931;44.874;-1.092;2024-01-07T02:56:19;5.65;;;2.20;;
9783;SDS011;4931;44.874;-1.092;2024-01-07T02:58:45;8.75;;;2.55;;
9783;SDS011;4931;44.874;-1.092;2024-01-07T03:01:10;5.38;;;2.15;;
9783;SDS011;4931;44.874;-1.092;2024-01-07T03:03:36;7.53;;;2.50;;
9783;SDS011;4931;44.874;-1.092;2024-01-07T03:06:02;8.15;;;2.67;;
9783;SDS011;4931;44.874;-1.092;2024-01-07T03:08:28;7.32;;;2.17;;
9783;SDS011;4931;44.874;-1.092;2024-01-07T03:10:53;5.32;;;2.10;;
9783;SDS011;4931;44.874;-1.092;2024-01-07T03:13:20;6.60;;;2.20;;
9783;SDS011;4931;44.874;-1.092;2024-01-07T03:15:46;4.97;;;2.15;;
9783;SDS011;4931;44.874;-1.092;2024-01-07T03:18:11;4.85;;;2.15;;
9783;SDS011;4931;44.874;-1.092;2024-01-07T03:20:37;7.32;;;2.08;;
9783;SDS011;4931;44.874;-1.092;2024-01-07T03:23:02;3.45;;;2.00;;
9783;SDS011;4931;44.874;-1.092;2024-01-07T03:25:28;5.90;;;2.08;;
9783;SDS011;4931;44.874;-1.092;2024-01-07T03:27:53;5.05;;;2.00;;
9783;SDS011;4931;44.874;-1.092;2024-01-07T03:30:19;4.78;;;1.92;;
9783;SDS011;4931;44.874;-1.092;2024-01-07T03:32:44;5.78;;;1.98;;
9783;SDS011;4931;44.874;-1.092;2024-01-07T03:35:09;6.75;;;2.22;;
9783;SDS011;4931;44.874;-1.092;2024-01-07T03:37:36;7.20;;;2.10;;
9783;SDS011;4931;44.874;-1.092;2024-01-07T03:40:02;5.65;;;1.85;;
9783;SDS011;4931;44.874;-1.092;2024-01-07T03:42:27;4.60;;;1.70;;
9783;SDS011;4931;44.874;-1.092;2024-01-07T03:44:53;6.05;;;1.95;;
9783;SDS011;4931;44.874;-1.092;2024-01-07T03:47:18;6.85;;;1.92;;
9783;SDS011;4931;44.874;-1.092;2024-01-07T03:49:44;3.75;;;2.17;;
9783;SDS011;4931;44.874;-1.092;2024-01-07T03:52:09;4.85;;;1.65;;
9783;SDS011;4931;44.874;-1.092;2024-01-07T03:54:35;4.97;;;1.85;;
9783;SDS011;4931;44.874;-1.092;2024-01-07T03:57:00;5.30;;;1.88;;
9783;SDS011;4931;44.874;-1.092;2024-01-07T03:59:26;4.28;;;2.05;;
9783;SDS011;4931;44.874;-1.092;2024-01-07T04:01:53;4.53;;;1.77;;
9783;SDS011;4931;44.874;-1.092;2024-01-07T04:04:19;4.75;;;1.75;;
9783;SDS011;4931;44.874;-1.092;2024-01-07T04:06:44;4.55;;;1.80;;
9783;SDS011;4931;44.874;-1.092;2024-01-07T04:09:10;6.38;;;1.88;;
9783;SDS011;4931;44.874;-1.092;2024-01-07T04:11:42;3.45;;;2.03;;
9783;SDS011;4931;44.874;-1.092;2024-01-07T04:14:08;6.00;;;2.15;;
9783;SDS011;4931;44.874;-1.092;2024-01-07T04:16:34;3.70;;;1.80;;
9783;SDS011;4931;44.874;-1.092;2024-01-07T04:19:00;3.78;;;2.10;;
9783;SDS011;4931;44.874;-1.092;2024-01-07T04:21:26;5.00;;;2.00;;
9783;SDS011;4931;44.874;-1.092;2024-01-07T04:23:51;4.15;;;2.10;;
9783;SDS011;4931;44.874;-1.092;2024-01-07T04:26:16;7.18;;;2.20;;
9783;SDS011;4931;44.874;-1.092;2024-01-07T04:28:42;3.25;;;1.90;;
9783;SDS011;4931;44.874;-1.092;2024-01-07T04:31:08;7.10;;;2.63;;
9783;SDS011;4931;44.874;-1.092;2024-01-07T04:33:34;6.50;;;2.92;;
9783;SDS011;4931;44.874;-1.092;2024-01-07T04:35:59;7.80;;;3.95;;
9783;SDS011;4931;44.874;-1.092;2024-01-07T04:38:26;6.97;;;3.50;;
9783;SDS011;4931;44.874;-1.092;2024-01-07T04:40:51;11.70;;;3.45;;
9783;SDS011;4931;44.874;-1.092;2024-01-07T04:43:20;6.15;;;3.30;;
9783;SDS011;4931;44.874;-1.092;2024-01-07T04:45:46;6.55;;;2.80;;
9783;SDS011;4931;44.874;-1.092;2024-01-07T04:48:12;5.70;;;3.17;;
9783;SDS011;4931;44.874;-1.092;2024-01-07T04:50:39;7.45;;;3.22;;
9783;SDS011;4931;44.874;-1.092;2024-01-07T04:53:05;9.95;;;3.40;;
9783;SDS011;4931;44.874;-1.092;2024-01-07T04:55:31;7.80;;;3.22;;
9783;SDS011;4931;44.874;-1.092;2024-01-07T04:57:56;10.65;;;3.38;;
9783;SDS011;4931;44.874;-1.092;2024-01-07T05:00:22;7.43;;;3.28;;
9783;SDS011;4931;44.874;-1.092;2024-01-07T05:02:47;6.70;;;3.50;;
9783;SDS011;4931;44.874;-1.092;2024-01-07T05:05:13;7.65;;;3.33;;
9783;SDS011;4931;44.874;-1.092;2024-01-07T05:07:40;7.40;;;2.88;;
9783;SDS011;4931;44.874;-1.092;2024-01-07T05:10:05;4.95;;;2.80;;
9783;SDS011;4931;44.874;-1.092;2024-01-07T05:12:31;5.72;;;2.80;;
9783;SDS011;4931;44.874;-1.092;2024-01-07T05:14:57;5.57;;;2.40;;
9783;SDS011;4931;44.874;-1.092;2024-01-07T05:17:22;5.10;;;2.30;;
9783;SDS011;4931;44.874;-1.092;2024-01-07T05:19:48;4.03;;;2.63;;
9783;SDS011;4931;44.874;-1.092;2024-01-07T05:22:13;5.63;;;2.75;;
9783;SDS011;4931;44.874;-1.092;2024-01-07T05:24:39;4.40;;;2.60;;
9783;SDS011;4931;44.874;-1.092;2024-01-07T05:27:04;8.07;;;3.13;;
9783;SDS011;4931;44.874;-1.092;2024-01-07T05:29:31;6.95;;;3.10;;
9783;SDS011;4931;44.874;-1.092;2024-01-07T05:31:58;7.28;;;3.03;;
9783;SDS011;4931;44.874;-1.092;2024-01-07T05:34:25;6.38;;;3.30;;
9783;SDS011;4931;44.874;-1.092;2024-01-07T05:36:51;7.40;;;3.30;;
9783;SDS011;4931;44.874;-1.092;2024-01-07T05:39:17;10.20;;;3.00;;
9783;SDS011;4931;44.874;-1.092;2024-01-07T05:41:42;8.63;;;3.22;;
9783;SDS011;4931;44.874;-1.092;2024-01-07T05:44:08;5.88;;;2.65;;
9783;SDS011;4931;44.874;-1.092;2024-01-07T05:46:34;3.88;;;2.45;;
9783;SDS011;4931;44.874;-1.092;2024-01-07T05:49:03;6.68;;;2.78;;
9783;SDS011;4931;44.874;-1.092;2024-01-07T05:51:28;5.55;;;2.83;;
9783;SDS011;4931;44.874;-1.092;2024-01-07T05:53:53;10.23;;;2.97;;
9783;SDS011;4931;44.874;-1.092;2024-01-07T05:56:19;8.88;;;3.33;;
9783;SDS011;4931;44.874;-1.092;2024-01-07T05:58:44;9.07;;;3.28;;
9783;SDS011;4931;44.874;-1.092;2024-01-07T06:01:10;7.50;;;3.00;;
9783;SDS011;4931;44.874;-1.092;2024-01-07T06:03:35;7.75;;;3.15;;
9783;SDS011;4931;44.874;-1.092;2024-01-07T06:06:01;12.43;;;4.97;;
9783;SDS011;4931;44.874;-1.092;2024-01-07T06:08:26;11.57;;;5.75;;
9783;SDS011;4931;44.874;-1.092;2024-01-07T06:10:52;10.98;;;6.00;;
9783;SDS011;4931;44.874;-1.092;2024-01-07T06:13:17;11.93;;;5.60;;
9783;SDS011;4931;44.874;-1.092;2024-01-07T06:15:43;11.18;;;5.47;;
9783;SDS011;4931;44.874;-1.092;2024-01-07T06:18:08;11.73;;;5.63;;
9783;SDS011;4931;44.874;-1.092;2024-01-07T06:20:34;10.50;;;5.38;;
9783;SDS011;4931;44.874;-1.092;2024-01-07T06:22:59;9.85;;;4.82;;
9783;SDS011;4931;44.874;-1.092;2024-01-07T06:25:25;12.27;;;4.78;;
9783;SDS011;4931;44.874;-1.092;2024-01-07T06:27:51;11.05;;;5.53;;
9783;SDS011;4931;44.874;-1.092;2024-01-07T06:30:17;8.27;;;4.80;;
9783;SDS011;4931;44.874;-1.092;2024-01-07T06:32:44;13.23;;;5.15;;
9783;SDS011;4931;44.874;-1.092;2024-01-07T06:35:10;8.57;;;4.90;;
9783;SDS011;4931;44.874;-1.092;2024-01-07T06:37:36;9.38;;;5.95;;
9783;SDS011;4931;44.874;-1.092;2024-01-07T06:40:02;12.82;;;7.03;;
9783;SDS011;4931;44.874;-1.092;2024-01-07T06:42:28;11.48;;;6.40;;
9783;SDS011;4931;44.874;-1.092;2024-01-07T06:44:53;11.75;;;5.97;;
9783;SDS011;4931;44.874;-1.092;2024-01-07T06:47:19;19.98;;;9.88;;
9783;SDS011;4931;44.874;-1.092;2024-01-07T06:49:44;29.60;;;13.23;;
9783;SDS011;4931;44.874;-1.092;2024-01-07T06:52:10;30.95;;;12.60;;
9783;SDS011;4931;44.874;-1.092;2024-01-07T06:54:35;14.23;;;6.70;;
9783;SDS011;4931;44.874;-1.092;2024-01-07T06:57:01;16.55;;;7.13;;
9783;SDS011;4931;44.874;-1.092;2024-01-07T06:59:27;14.60;;;5.97;;
9783;SDS011;4931;44.874;-1.092;2024-01-07T07:01:53;15.75;;;6.85;;
9783;SDS011;4931;44.874;-1.092;2024-01-07T07:04:20;29.88;;;13.23;;
9783;SDS011;4931;44.874;-1.092;2024-01-07T07:06:46;48.38;;;22.85;;
9783;SDS011;4931;44.874;-1.092;2024-01-07T07:09:11;47.30;;;22.17;;
9783;SDS011;4931;44.874;-1.092;2024-01-07T07:11:37;31.60;;;12.98;;
9783;SDS011;4931;44.874;-1.092;2024-01-07T07:14:03;25.48;;;12.27;;
9783;SDS011;4931;44.874;-1.092;2024-01-07T07:16:29;19.50;;;10.13;;
9783;SDS011;4931;44.874;-1.092;2024-01-07T07:18:54;13.60;;;9.27;;
9783;SDS011;4931;44.874;-1.092;2024-01-07T07:21:19;16.67;;;9.55;;
9783;SDS011;4931;44.874;-1.092;2024-01-07T07:23:45;14.05;;;8.38;;
9783;SDS011;4931;44.874;-1.092;2024-01-07T07:26:10;15.07;;;9.43;;
9783;SDS011;4931;44.874;-1.092;2024-01-07T07:28:36;18.67;;;10.55;;
9783;SDS011;4931;44.874;-1.092;2024-01-07T07:31:02;15.85;;;9.55;;
9783;SDS011;4931;44.874;-1.092;2024-01-07T07:33:27;14.73;;;9.52;;
9783;SDS011;4931;44.874;-1.092;2024-01-07T07:35:52;24.20;;;13.40;;
9783;SDS011;4931;44.874;-1.092;2024-01-07T07:38:18;60.53;;;28.95;;
9783;SDS011;4931;44.874;-1.092;2024-01-07T07:40:43;60.10;;;30.58;;
9783;SDS011;4931;44.874;-1.092;2024-01-07T07:43:10;60.15;;;28.98;;
9783;SDS011;4931;44.874;-1.092;2024-01-07T07:45:35;54.17;;;28.67;;
9783;SDS011;4931;44.874;-1.092;2024-01-07T07:48:01;56.80;;;31.25;;
9783;SDS011;4931;44.874;-1.092;2024-01-07T07:50:26;55.30;;;30.10;;
9783;SDS011;4931;44.874;-1.092;2024-01-07T07:52:52;52.15;;;29.52;;
9783;SDS011;4931;44.874;-1.092;2024-01-07T07:55:18;46.45;;;25.58;;
9783;SDS011;4931;44.874;-1.092;2024-01-07T07:57:44;46.65;;;26.42;;
9783;SDS011;4931;44.874;-1.092;2024-01-07T08:00:10;54.67;;;30.25;;
9783;SDS011;4931;44.874;-1.092;2024-01-07T08:02:37;57.78;;;31.77;;
9783;SDS011;4931;44.874;-1.092;2024-01-07T08:05:03;62.25;;;32.15;;
9783;SDS011;4931;44.874;-1.092;2024-01-07T08:07:29;54.50;;;28.85;;
9783;SDS011;4931;44.874;-1.092;2024-01-07T08:09:54;48.28;;;27.83;;
9783;SDS011;4931;44.874;-1.092;2024-01-07T08:12:22;56.38;;;30.63;;
9783;SDS011;4931;44.874;-1.092;2024-01-07T08:14:47;56.25;;;30.60;;
9783;SDS011;4931;44.874;-1.092;2024-01-07T08:17:13;49.72;;;28.23;;
9783;SDS011;4931;44.874;-1.092;2024-01-07T08:19:38;51.80;;;27.92;;
9783;SDS011;4931;44.874;-1.092;2024-01-07T08:22:04;58.55;;;30.73;;
9783;SDS011;4931;44.874;-1.092;2024-01-07T08:24:29;53.85;;;31.23;;
9783;SDS011;4931;44.874;-1.092;2024-01-07T08:26:55;62.83;;;35.75;;
9783;SDS011;4931;44.874;-1.092;2024-01-07T08:29:20;57.90;;;32.88;;
9783;SDS011;4931;44.874;-1.092;2024-01-07T08:31:45;58.95;;;33.03;;
9783;SDS011;4931;44.874;-1.092;2024-01-07T08:34:11;51.50;;;30.38;;
9783;SDS011;4931;44.874;-1.092;2024-01-07T08:36:36;53.55;;;30.73;;
9783;SDS011;4931;44.874;-1.092;2024-01-07T08:39:03;51.55;;;29.65;;
9783;SDS011;4931;44.874;-1.092;2024-01-07T08:41:29;46.33;;;25.33;;
9783;SDS011;4931;44.874;-1.092;2024-01-07T08:43:54;30.55;;;17.45;;
9783;SDS011;4931;44.874;-1.092;2024-01-07T08:46:20;28.58;;;13.63;;
9783;SDS011;4931;44.874;-1.092;2024-01-07T08:48:46;17.75;;;7.80;;
9783;SDS011;4931;44.874;-1.092;2024-01-07T08:51:12;17.52;;;7.22;;
9783;SDS011;4931;44.874;-1.092;2024-01-07T08:53:39;13.68;;;6.40;;
9783;SDS011;4931;44.874;-1.092;2024-01-07T08:56:05;13.80;;;5.70;;
9783;SDS011;4931;44.874;-1.092;2024-01-07T08:58:31;14.45;;;6.05;;
9783;SDS011;4931;44.874;-1.092;2024-01-07T09:00:57;11.48;;;5.15;;
9783;SDS011;4931;44.874;-1.092;2024-01-07T09:03:23;16.08;;;5.80;;
9783;SDS011;4931;44.874;-1.092;2024-01-07T09:05:48;15.68;;;5.50;;
9783;SDS011;4931;44.874;-1.092;2024-01-07T09:08:14;17.60;;;5.85;;
9783;SDS011;4931;44.874;-1.092;2024-01-07T09:10:39;15.70;;;5.68;;
9783;SDS011;4931;44.874;-1.092;2024-01-07T09:13:05;12.70;;;5.65;;
9783;SDS011;4931;44.874;-1.092;2024-01-07T09:15:31;12.88;;;5.72;;
9783;SDS011;4931;44.874;-1.092;2024-01-07T09:17:56;15.27;;;5.68;;
9783;SDS011;4931;44.874;-1.092;2024-01-07T09:20:22;16.83;;;5.68;;
9783;SDS011;4931;44.874;-1.092;2024-01-07T09:22:49;13.48;;;5.20;;
9783;SDS011;4931;44.874;-1.092;2024-01-07T09:25:14;12.40;;;4.53;;
9783;SDS011;4931;44.874;-1.092;2024-01-07T09:27:40;11.88;;;4.75;;
9783;SDS011;4931;44.874;-1.092;2024-01-07T09:30:06;13.40;;;4.80;;
9783;SDS011;4931;44.874;-1.092;2024-01-07T09:32:32;12.40;;;5.05;;
9783;SDS011;4931;44.874;-1.092;2024-01-07T09:34:57;12.15;;;4.82;;
9783;SDS011;4931;44.874;-1.092;2024-01-07T09:37:23;11.73;;;5.20;;
9783;SDS011;4931;44.874;-1.092;2024-01-07T09:39:48;9.82;;;4.72;;
9783;SDS011;4931;44.874;-1.092;2024-01-07T09:42:18;10.52;;;4.35;;
9783;SDS011;4931;44.874;-1.092;2024-01-07T09:44:44;10.77;;;4.93;;
9783;SDS011;4931;44.874;-1.092;2024-01-07T09:47:10;14.55;;;4.35;;
9783;SDS011;4931;44.874;-1.092;2024-01-07T09:49:37;13.90;;;5.07;;
9783;SDS011;4931;44.874;-1.092;2024-01-07T09:52:04;12.05;;;4.53;;
9783;SDS011;4931;44.874;-1.092;2024-01-07T09:54:30;8.05;;;4.47;;
9783;SDS011;4931;44.874;-1.092;2024-01-07T09:57:00;26.40;;;9.48;;
9783;SDS011;4931;44.874;-1.092;2024-01-07T09:59:29;10.02;;;4.38;;
9783;SDS011;4931;44.874;-1.092;2024-01-07T10:01:55;9.80;;;3.92;;
9783;SDS011;4931;44.874;-1.092;2024-01-07T10:04:25;9.05;;;3.88;;
9783;SDS011;4931;44.874;-1.092;2024-01-07T10:06:55;9.55;;;4.07;;
9783;SDS011;4931;44.874;-1.092;2024-01-07T10:09:24;11.52;;;3.75;;
9783;SDS011;4931;44.874;-1.092;2024-01-07T10:11:54;10.80;;;4.60;;
9783;SDS011;4931;44.874;-1.092;2024-01-07T10:14:20;8.60;;;3.85;;
9783;SDS011;4931;44.874;-1.092;2024-01-07T10:16:47;8.93;;;3.88;;
9783;SDS011;4931;44.874;-1.092;2024-01-07T10:19:21;9.02;;;3.80;;
9783;SDS011;4931;44.874;-1.092;2024-01-07T10:22:01;10.82;;;3.60;;
9783;SDS011;4931;44.874;-1.092;2024-01-07T10:24:37;8.77;;;3.15;;
9783;SDS011;4931;44.874;-1.092;2024-01-07T10:27:06;9.23;;;3.60;;
9783;SDS011;4931;44.874;-1.092;2024-01-07T10:29:32;8.10;;;3.45;;
9783;SDS011;4931;44.874;-1.092;2024-01-07T10:32:01;6.00;;;3.13;;
9783;SDS011;4931;44.874;-1.092;2024-01-07T10:34:33;5.45;;;2.80;;
9783;SDS011;4931;44.874;-1.092;2024-01-07T10:37:00;7.43;;;3.00;;
9783;SDS011;4931;44.874;-1.092;2024-01-07T10:39:27;11.80;;;4.20;;
9783;SDS011;4931;44.874;-1.092;2024-01-07T10:41:53;8.98;;;3.42;;
9783;SDS011;4931;44.874;-1.092;2024-01-07T10:44:26;14.95;;;3.80;;
9783;SDS011;4931;44.874;-1.092;2024-01-07T10:46:55;5.93;;;3.08;;
9783;SDS011;4931;44.874;-1.092;2024-01-07T10:49:22;9.60;;;3.38;;
9783;SDS011;4931;44.874;-1.092;2024-01-07T10:54:32;7.80;;;3.75;;
9783;SDS011;4931;44.874;-1.092;2024-01-07T10:57:00;8.30;;;2.92;;
9783;SDS011;4931;44.874;-1.092;2024-01-07T10:59:34;7.85;;;2.70;;
9783;SDS011;4931;44.874;-1.092;2024-01-07T11:02:01;10.32;;;4.10;;
9783;SDS011;4931;44.874;-1.092;2024-01-07T11:07:19;13.50;;;3.72;;
9783;SDS011;4931;44.874;-1.092;2024-01-07T11:12:39;8.88;;;3.50;;
9783;SDS011;4931;44.874;-1.092;2024-01-07T11:15:04;10.00;;;2.78;;
9783;SDS011;4931;44.874;-1.092;2024-01-07T11:17:42;4.32;;;2.58;;
9783;SDS011;4931;44.874;-1.092;2024-01-07T11:20:12;6.38;;;2.60;;
9783;SDS011;4931;44.874;-1.092;2024-01-07T11:22:42;9.95;;;2.70;;
9783;SDS011;4931;44.874;-1.092;2024-01-07T11:27:53;8.43;;;3.10;;
9783;SDS011;4931;44.874;-1.092;2024-01-07T11:30:20;5.57;;;2.40;;
9783;SDS011;4931;44.874;-1.092;2024-01-07T11:32:46;7.30;;;3.00;;
9783;SDS011;4931;44.874;-1.092;2024-01-07T11:35:14;8.80;;;2.70;;
9783;SDS011;4931;44.874;-1.092;2024-01-07T11:37:41;6.68;;;2.55;;
9783;SDS011;4931;44.874;-1.092;2024-01-07T11:40:07;7.95;;;2.47;;
9783;SDS011;4931;44.874;-1.092;2024-01-07T11:42:33;6.57;;;2.50;;
9783;SDS011;4931;44.874;-1.092;2024-01-07T11:44:59;7.45;;;2.83;;
9783;SDS011;4931;44.874;-1.092;2024-01-07T11:47:24;6.03;;;2.53;;
9783;SDS011;4931;44.874;-1.092;2024-01-07T11:49:53;7.00;;;2.67;;
9783;SDS011;4931;44.874;-1.092;2024-01-07T11:52:19;7.72;;;2.75;;
9783;SDS011;4931;44.874;-1.092;2024-01-07T11:54:45;6.60;;;2.45;;
9783;SDS011;4931;44.874;-1.092;2024-01-07T11:57:12;6.57;;;2.00;;
9783;SDS011;4931;44.874;-1.092;2024-01-07T11:59:38;5.05;;;2.28;;
9783;SDS011;4931;44.874;-1.092;2024-01-07T12:02:04;4.93;;;2.58;;
9783;SDS011;4931;44.874;-1.092;2024-01-07T12:04:31;7.18;;;2.28;;
9783;SDS011;4931;44.874;-1.092;2024-01-07T12:06:57;5.32;;;2.03;;
9783;SDS011;4931;44.874;-1.092;2024-01-07T12:09:23;3.72;;;1.90;;
9783;SDS011;4931;44.874;-1.092;2024-01-07T12:11:48;6.00;;;1.80;;
9783;SDS011;4931;44.874;-1.092;2024-01-07T12:14:14;8.38;;;2.40;;
9783;SDS011;4931;44.874;-1.092;2024-01-07T12:16:40;3.45;;;1.90;;
9783;SDS011;4931;44.874;-1.092;2024-01-07T12:19:06;4.18;;;1.88;;
9783;SDS011;4931;44.874;-1.092;2024-01-07T12:21:33;4.93;;;2.22;;
9783;SDS011;4931;44.874;-1.092;2024-01-07T12:23:59;8.43;;;2.60;;
9783;SDS011;4931;44.874;-1.092;2024-01-07T12:26:28;5.15;;;2.00;;
9783;SDS011;4931;44.874;-1.092;2024-01-07T12:28:54;3.83;;;1.63;;
9783;SDS011;4931;44.874;-1.092;2024-01-07T12:31:21;4.10;;;1.67;;
9783;SDS011;4931;44.874;-1.092;2024-01-07T12:33:47;3.90;;;1.60;;
9783;SDS011;4931;44.874;-1.092;2024-01-07T12:36:12;4.28;;;1.50;;
9783;SDS011;4931;44.874;-1.092;2024-01-07T12:38:38;3.92;;;1.80;;
9783;SDS011;4931;44.874;-1.092;2024-01-07T12:41:04;2.80;;;1.52;;
9783;SDS011;4931;44.874;-1.092;2024-01-07T12:43:30;4.43;;;1.60;;
9783;SDS011;4931;44.874;-1.092;2024-01-07T12:45:56;5.75;;;1.52;;
9783;SDS011;4931;44.874;-1.092;2024-01-07T12:48:23;3.25;;;1.45;;
9783;SDS011;4931;44.874;-1.092;2024-01-07T12:50:48;2.60;;;1.50;;
9783;SDS011;4931;44.874;-1.092;2024-01-07T12:53:14;4.97;;;1.52;;
9783;SDS011;4931;44.874;-1.092;2024-01-07T12:55:39;5.75;;;1.88;;
9783;SDS011;4931;44.874;-1.092;2024-01-07T12:58:05;3.72;;;1.60;;
9783;SDS011;4931;44.874;-1.092;2024-01-07T13:00:31;3.60;;;1.50;;
9783;SDS011;4931;44.874;-1.092;2024-01-07T13:02:56;4.13;;;1.50;;
9783;SDS011;4931;44.874;-1.092;2024-01-07T13:05:22;2.28;;;1.30;;
9783;SDS011;4931;44.874;-1.092;2024-01-07T13:07:48;3.60;;;1.75;;
9783;SDS011;4931;44.874;-1.092;2024-01-07T13:10:15;2.92;;;1.45;;
9783;SDS011;4931;44.874;-1.092;2024-01-07T13:12:41;4.28;;;1.70;;
9783;SDS011;4931;44.874;-1.092;2024-01-07T13:15:07;8.32;;;3.35;;
9783;SDS011;4931;44.874;-1.092;2024-01-07T13:17:32;5.35;;;1.70;;
9783;SDS011;4931;44.874;-1.092;2024-01-07T13:19:58;3.08;;;1.77;;
9783;SDS011;4931;44.874;-1.092;2024-01-07T13:22:24;2.90;;;1.55;;
9783;SDS011;4931;44.874;-1.092;2024-01-07T13:24:50;3.90;;;1.30;;
9783;SDS011;4931;44.874;-1.092;2024-01-07T13:27:15;2.53;;;1.42;;
9783;SDS011;4931;44.874;-1.092;2024-01-07T13:29:43;5.13;;;1.75;;
9783;SDS011;4931;44.874;-1.092;2024-01-07T13:32:12;6.32;;;1.58;;
9783;SDS011;4931;44.874;-1.092;2024-01-07T13:34:41;3.65;;;1.60;;
9783;SDS011;4931;44.874;-1.092;2024-01-07T13:37:07;3.45;;;1.70;;
9783;SDS011;4931;44.874;-1.092;2024-01-07T13:39:32;4.57;;;1.60;;
9783;SDS011;4931;44.874;-1.092;2024-01-07T13:41:58;3.08;;;1.48;;
9783;SDS011;4931;44.874;-1.092;2024-01-07T13:44:23;2.15;;;1.20;;
9783;SDS011;4931;44.874;-1.092;2024-01-07T13:46:48;2.65;;;1.42;;
9783;SDS011;4931;44.874;-1.092;2024-01-07T13:49:17;2.25;;;1.50;;
9783;SDS011;4931;44.874;-1.092;2024-01-07T13:51:42;2.85;;;1.13;;
9783;SDS011;4931;44.874;-1.092;2024-01-07T13:54:09;3.35;;;1.40;;
9783;SDS011;4931;44.874;-1.092;2024-01-07T13:56:40;2.47;;;1.20;;
9783;SDS011;4931;44.874;-1.092;2024-01-07T13:59:07;7.45;;;2.95;;
9783;SDS011;4931;44.874;-1.092;2024-01-07T14:01:34;4.18;;;1.30;;
9783;SDS011;4931;44.874;-1.092;2024-01-07T14:03:59;4.93;;;1.15;;
9783;SDS011;4931;44.874;-1.092;2024-01-07T14:06:25;3.20;;;1.20;;
9783;SDS011;4931;44.874;-1.092;2024-01-07T14:08:50;4.07;;;1.25;;
9783;SDS011;4931;44.874;-1.092;2024-01-07T14:11:17;3.35;;;1.30;;
9783;SDS011;4931;44.874;-1.092;2024-01-07T14:13:43;3.63;;;1.50;;
9783;SDS011;4931;44.874;-1.092;2024-01-07T14:16:10;3.70;;;1.30;;
9783;SDS011;4931;44.874;-1.092;2024-01-07T14:18:36;3.78;;;1.40;;
9783;SDS011;4931;44.874;-1.092;2024-01-07T14:21:02;1.90;;;1.10;;
9783;SDS011;4931;44.874;-1.092;2024-01-07T14:23:27;3.10;;;1.02;;
9783;SDS011;4931;44.874;-1.092;2024-01-07T14:25:55;5.68;;;1.20;;
9783;SDS011;4931;44.874;-1.092;2024-01-07T14:28:21;5.80;;;1.40;;
9783;SDS011;4931;44.874;-1.092;2024-01-07T14:30:47;3.30;;;1.35;;
9783;SDS011;4931;44.874;-1.092;2024-01-07T14:33:12;3.50;;;1.02;;
9783;SDS011;4931;44.874;-1.092;2024-01-07T14:35:38;2.67;;;1.08;;
9783;SDS011;4931;44.874;-1.092;2024-01-07T14:38:04;1.80;;;1.00;;
9783;SDS011;4931;44.874;-1.092;2024-01-07T14:40:29;3.08;;;1.25;;
9783;SDS011;4931;44.874;-1.092;2024-01-07T14:42:55;3.38;;;1.15;;
9783;SDS011;4931;44.874;-1.092;2024-01-07T14:45:23;3.08;;;1.27;;
9783;SDS011;4931;44.874;-1.092;2024-01-07T14:47:50;3.38;;;1.20;;
9783;SDS011;4931;44.874;-1.092;2024-01-07T14:50:16;2.60;;;1.15;;
9783;SDS011;4931;44.874;-1.092;2024-01-07T14:52:42;8.23;;;1.27;;
9783;SDS011;4931;44.874;-1.092;2024-01-07T14:55:08;3.28;;;0.70;;
9783;SDS011;4931;44.874;-1.092;2024-01-07T14:57:34;3.65;;;1.10;;
9783;SDS011;4931;44.874;-1.092;2024-01-07T14:59:59;5.40;;;1.52;;